createdAt,value
2023-04-17T00:05:58.540Z,100.00
2023-04-17T00:21:00.359Z,100.00
2023-04-17T00:36:02.066Z,100.00
2023-04-17T00:51:04.073Z,100.00
2023-04-17T01:06:06.177Z,100.00
2023-04-17T01:21:07.931Z,100.00
2023-04-17T01:36:09.770Z,100.00
2023-04-17T01:51:11.498Z,100.00
2023-04-17T02:06:13.324Z,100.00
2023-04-17T02:21:15.273Z,100.00
2023-04-17T02:36:17.057Z,100.00
2023-04-17T02:51:18.897Z,100.00
2023-04-17T03:06:21.753Z,100.00
2023-04-17T03:21:23.566Z,100.00
2023-04-17T03:36:27.275Z,100.00
2023-04-17T03:51:29.386Z,100.00
2023-04-17T04:06:30.890Z,100.00
2023-04-17T04:21:33.123Z,100.00
2023-04-17T04:36:42.062Z,100.00
2023-04-17T04:51:43.756Z,100.00
2023-04-17T05:06:45.788Z,100.00
2023-04-17T05:21:47.681Z,100.00
2023-04-17T05:36:49.296Z,100.00
2023-04-17T05:51:51.095Z,100.00
2023-04-17T06:06:52.901Z,100.00
2023-04-17T06:21:54.657Z,100.00
2023-04-17T06:36:58.344Z,100.00
2023-04-17T06:52:00.764Z,100.00
2023-04-17T07:07:02.531Z,100.00
2023-04-17T07:22:05.764Z,100.00
2023-04-17T07:37:07.519Z,99.68
2023-04-17T07:52:09.200Z,98.25
2023-04-17T08:07:11.430Z,99.40
2023-04-17T08:22:14.603Z,100.00
2023-04-17T08:37:16.322Z,100.00
2023-04-17T08:52:17.956Z,100.00
2023-04-17T09:07:31.970Z,100.00
2023-04-17T09:22:34.029Z,100.00
2023-04-17T09:37:51.029Z,97.22
2023-04-17T09:52:54.788Z,100.00
2023-04-17T10:07:56.928Z,100.00
2023-04-17T10:22:58.682Z,98.27
2023-04-17T10:38:06.352Z,92.22
2023-04-17T10:53:08.124Z,86.57
2023-04-17T11:08:11.086Z,85.26
2023-04-17T11:23:13.817Z,80.45
2023-04-17T11:38:21.793Z,80.58
2023-04-17T11:53:24.845Z,78.93
2023-04-17T12:18:37.519Z,76.47
2023-04-17T12:33:39.142Z,74.75
2023-04-17T12:48:41.087Z,74.22
2023-04-17T13:03:42.933Z,70.70
2023-04-17T13:18:44.853Z,71.66
2023-04-17T13:33:46.533Z,72.65
2023-04-17T13:48:48.341Z,77.97
2023-04-17T14:03:50.133Z,79.45
2023-04-17T14:18:52.148Z,77.74
2023-04-17T14:33:54.535Z,78.75
2023-04-17T14:48:56.456Z,77.38
2023-04-17T15:03:58.431Z,81.63
2023-04-17T15:19:00.584Z,82.89
2023-04-17T15:34:02.276Z,80.82
2023-04-17T15:49:08.431Z,81.52
2023-04-17T16:04:23.351Z,84.60
2023-04-17T16:19:28.733Z,83.84
2023-04-17T16:34:30.481Z,82.22
2023-04-17T16:49:32.161Z,88.08
2023-04-17T17:04:33.922Z,100.00
2023-04-17T17:19:35.676Z,100.00
2023-04-17T17:34:37.387Z,100.00
2023-04-17T17:49:39.115Z,100.00
2023-04-17T18:04:41.145Z,100.00
2023-04-17T18:19:44.549Z,100.00
2023-04-17T18:34:49.266Z,100.00
2023-04-17T18:49:54.272Z,100.00
2023-04-17T19:04:56.463Z,100.00
2023-04-17T19:19:58.235Z,100.00
2023-04-17T19:34:59.732Z,100.00
2023-04-17T19:50:01.436Z,100.00
2023-04-17T20:05:03.384Z,100.00
2023-04-17T20:20:05.471Z,100.00
2023-04-17T20:50:27.465Z,100.00
2023-04-17T21:05:29.341Z,100.00
2023-04-17T21:20:31.050Z,100.00
2023-04-17T21:35:32.773Z,100.00
2023-04-17T21:50:36.347Z,100.00
2023-04-17T22:05:38.134Z,100.00
2023-04-17T22:20:40.165Z,100.00
2023-04-17T22:35:41.781Z,100.00
2023-04-17T22:50:43.879Z,100.00
2023-04-17T23:05:45.619Z,100.00
2023-04-17T23:20:47.447Z,100.00
2023-04-17T23:35:49.135Z,100.00
2023-04-17T23:50:50.957Z,100.00
